Vozega, Russia
Current Conditions -  °F | °C
As of 11:00 AM on Wednesday 22 Oct 2014 (Local Time) from ULWC Reporting Station
Broken Clouds Broken Clouds  
Wind Chill:   Ceiling: Unl
Heat Index: 14°   Visibility: 6mi
Dew Point:   Wind: 9mph
Humidity: 73%   Direction: 330°NNW
Pressure: 29.97"   Gusts: 16mph
Location:  60.47°N, 40.2°E
Report Text: ULWC 220800Z 33004G07MPS 9999 SCT020 BKN/// M10/M14 Q1015 TEMPOSCT007 RMK QFE751/1002 SC040
Loading
Personal Weather Stations






























Interactive Weather Map
Tropical Storm Tracking
New forecast layout! Learn more

10-Day Weather Forecast

Advertisements
Track Severe Weather on mobile